Time;durP1;ratioP1;P1;durP2;ratioP2;P2;SDS_P1;SDS_P2;PMS_P1;PMS_P2;Temp;Humidity;BMP_temperature;BMP_pressure;BME280_temperature;BME280_humidity;BME280_pressure;Samples;Min_cycle;Max_cycle;Signal;HPM_P1;HPM_P2
2021/01/09 00:00:00;;;;;;;;;;;-0.10;99.90;;;;;;5072227;28;19912;-77
2021/01/09 00:02:25;;;;;;;;;;;-0.10;99.90;;;;;;5082318;28;19909;-77
2021/01/09 00:04:51;;;;;;;;;;;-0.10;99.90;;;;;;5076563;28;20377;-76
2021/01/09 00:07:16;;;;;;;;;;;-0.10;99.90;;;;;;5071140;28;19913;-75
2021/01/09 00:09:41;;;;;;;;;;;-0.10;99.90;;;;;;5084342;28;19916;-77
2021/01/09 00:12:10;;;;;;;;;;;-0.10;99.90;;;;;;5090740;28;19912;-76
2021/01/09 00:14:36;;;;;;;;;;;-0.20;99.90;;;;;;5081934;28;20361;-77
2021/01/09 00:17:01;;;;;;;;;;;-0.20;99.90;;;;;;5075908;28;20004;-77
2021/01/09 00:19:27;;;;;;;;;;;-0.20;99.90;;;;;;5069925;28;19947;-77
2021/01/09 00:21:52;;;;;;;;;;;-0.20;99.90;;;;;;5070052;28;20007;-75
2021/01/09 00:24:18;;;;;;;;;;;-0.20;99.90;;;;;;5071484;28;20282;-77
2021/01/09 00:26:43;;;;;;;;;;;-0.20;99.90;;;;;;5083009;28;19919;-77
2021/01/09 00:29:10;;;;;;;;;;;-0.30;99.90;;;;;;5081497;28;19909;-75
2021/01/09 00:31:35;;;;;;;;;;;-0.30;99.90;;;;;;5075838;28;19921;-76
2021/01/09 00:34:01;;;;;;;;;;;-0.20;99.90;;;;;;5082230;28;19915;-77
2021/01/09 00:36:26;;;;;;;;;;;-0.20;99.90;;;;;;5090608;28;19961;-77
2021/01/09 00:38:52;;;;;;;;;;;-0.20;99.90;;;;;;5091178;28;19912;-77
2021/01/09 00:41:37;;;;;;;;;;;-0.20;99.90;;;;;;5091012;28;19908;-77
2021/01/09 00:44:03;;;;;;;;;;;-0.20;99.90;;;;;;5072636;28;19912;-75
2021/01/09 00:46:29;;;;;;;;;;;-0.20;99.90;;;;;;5071080;28;19915;-77
2021/01/09 00:48:54;;;;;;;;;;;-0.20;99.90;;;;;;5070465;28;19915;-77
2021/01/09 00:51:19;;;;;;;;;;;-0.20;99.90;;;;;;5070264;28;20360;-77
2021/01/09 00:53:45;;;;;;;;;;;-0.20;99.90;;;;;;5076445;28;19955;-77
2021/01/09 00:56:14;;;;;;;;;;;-0.20;99.90;;;;;;5085557;28;19912;-77
2021/01/09 00:58:40;;;;;;;;;;;-0.20;99.90;;;;;;5074924;28;19950;-77
2021/01/09 01:01:05;;;;;;;;;;;-0.20;99.90;;;;;;5075129;28;20384;-75
2021/01/09 01:03:31;;;;;;;;;;;-0.20;99.90;;;;;;5075094;28;19916;-77
2021/01/09 01:05:56;;;;;;;;;;;-0.20;99.90;;;;;;5073602;28;20254;-77
2021/01/09 01:08:22;;;;;;;;;;;-0.20;99.90;;;;;;5073613;28;19912;-77
2021/01/09 01:10:48;;;;;;;;;;;-0.10;99.90;;;;;;5074960;28;20335;-76
2021/01/09 01:13:14;;;;;;;;;;;-0.10;99.90;;;;;;5075718;28;19932;-76
2021/01/09 01:15:40;;;;;;;;;;;-0.10;99.90;;;;;;5080338;28;19951;-77
2021/01/09 01:18:06;;;;;;;;;;;-0.10;99.90;;;;;;5088899;28;19943;-76
2021/01/09 01:20:31;;;;;;;;;;;0.00;99.90;;;;;;5073439;28;19909;-77
2021/01/09 01:22:57;;;;;;;;;;;0.00;99.90;;;;;;5086671;28;19915;-77
2021/01/09 01:25:22;;;;;;;;;;;0.00;99.90;;;;;;5081846;28;19909;-77
2021/01/09 01:27:48;;;;;;;;;;;0.00;99.90;;;;;;5072848;28;19909;-76
2021/01/09 01:30:13;;;;;;;;;;;0.10;99.90;;;;;;5074126;28;19934;-76
2021/01/09 01:32:39;;;;;;;;;;;0.10;99.90;;;;;;5074290;28;19919;-76
2021/01/09 01:35:05;;;;;;;;;;;0.10;99.90;;;;;;5074329;28;19970;-76
2021/01/09 01:37:30;;;;;;;;;;;0.10;99.90;;;;;;5073838;28;19915;-76
2021/01/09 01:39:56;;;;;;;;;;;0.10;99.90;;;;;;5073450;28;19987;-77
2021/01/09 01:42:21;;;;;;;;;;;0.10;99.90;;;;;;5089265;28;20388;-77
2021/01/09 01:44:47;;;;;;;;;;;0.10;99.90;;;;;;5082999;28;19921;-77
2021/01/09 01:47:20;;;;;;;;;;;0.10;99.90;;;;;;5079032;28;19912;-77
2021/01/09 01:49:45;;;;;;;;;;;0.00;99.90;;;;;;5083236;28;19952;-77
2021/01/09 01:52:14;;;;;;;;;;;0.00;99.90;;;;;;5076079;28;20309;-77
2021/01/09 01:54:41;;;;;;;;;;;0.00;99.90;;;;;;5073473;28;19908;-77
2021/01/09 01:57:08;;;;;;;;;;;0.00;99.90;;;;;;5071669;28;20380;-77
2021/01/09 01:59:33;;;;;;;;;;;0.00;99.90;;;;;;5071488;28;19923;-77
2021/01/09 02:02:00;;;;;;;;;;;0.00;99.90;;;;;;5073099;28;19912;-77
2021/01/09 02:04:25;;;;;;;;;;;0.00;99.90;;;;;;5071780;28;19915;-76
2021/01/09 02:06:51;;;;;;;;;;;0.00;99.90;;;;;;5072684;28;19908;-75
2021/01/09 02:09:20;;;;;;;;;;;0.10;99.90;;;;;;5072857;28;20406;-77
2021/01/09 02:11:50;;;;;;;;;;;0.10;99.90;;;;;;5081147;28;19912;-76
2021/01/09 02:14:29;;;;;;;;;;;0.10;99.90;;;;;;5073473;28;19919;-76
2021/01/09 02:16:56;;;;;;;;;;;0.10;99.90;;;;;;5072568;28;20007;-77
2021/01/09 02:19:22;;;;;;;;;;;0.10;99.90;;;;;;5077138;28;19908;-76
2021/01/09 02:21:48;;;;;;;;;;;0.10;99.90;;;;;;5090988;28;20029;-77
2021/01/09 02:24:18;;;;;;;;;;;0.10;99.90;;;;;;5090858;28;19918;-77
2021/01/09 02:26:44;;;;;;;;;;;0.10;99.90;;;;;;5091741;28;19981;-77
2021/01/09 02:29:11;;;;;;;;;;;0.00;99.90;;;;;;5091924;28;19908;-76
2021/01/09 02:31:48;;;;;;;;;;;0.00;99.90;;;;;;5091951;28;20010;-76
2021/01/09 02:34:14;;;;;;;;;;;0.00;99.90;;;;;;5091833;28;20389;-76
2021/01/09 02:36:40;;;;;;;;;;;0.10;99.90;;;;;;5091428;28;19973;-77
2021/01/09 02:39:05;;;;;;;;;;;0.10;99.90;;;;;;5090233;28;19940;-77
2021/01/09 02:41:33;;;;;;;;;;;0.10;99.90;;;;;;5084103;28;20374;-77
2021/01/09 02:44:06;;;;;;;;;;;0.20;99.90;;;;;;5077981;28;20288;-76
2021/01/09 02:46:32;;;;;;;;;;;0.20;99.90;;;;;;5072625;28;19969;-76
2021/01/09 02:48:58;;;;;;;;;;;0.20;99.90;;;;;;5071487;28;19909;-77
2021/01/09 02:51:23;;;;;;;;;;;0.20;99.90;;;;;;5071565;28;19920;-77
2021/01/09 02:53:49;;;;;;;;;;;0.10;99.90;;;;;;5071220;28;19916;-77
2021/01/09 02:56:14;;;;;;;;;;;0.10;99.90;;;;;;5072194;28;19908;-76
2021/01/09 02:58:39;;;;;;;;;;;0.20;99.90;;;;;;5071218;28;19914;-77
2021/01/09 03:01:05;;;;;;;;;;;0.20;99.90;;;;;;5072604;28;20254;-76
2021/01/09 03:03:30;;;;;;;;;;;0.20;99.90;;;;;;5072541;28;19908;-76
2021/01/09 03:05:56;;;;;;;;;;;0.20;99.90;;;;;;5072024;28;19908;-77
2021/01/09 03:08:21;;;;;;;;;;;0.10;99.90;;;;;;5070807;28;20358;-77
2021/01/09 03:10:47;;;;;;;;;;;0.10;99.90;;;;;;5077030;28;19915;-77
2021/01/09 03:13:12;;;;;;;;;;;0.00;99.90;;;;;;5092434;28;19912;-77
2021/01/09 03:15:38;;;;;;;;;;;0.10;99.90;;;;;;5091171;28;20362;-76
2021/01/09 03:18:03;;;;;;;;;;;0.10;99.90;;;;;;5092020;28;19919;-76
2021/01/09 03:20:28;;;;;;;;;;;0.10;99.90;;;;;;5092579;28;20376;-76
2021/01/09 03:22:54;;;;;;;;;;;0.10;99.90;;;;;;5091113;28;19920;-77
2021/01/09 03:25:19;;;;;;;;;;;0.00;99.90;;;;;;5092290;28;19936;-77
2021/01/09 03:27:45;;;;;;;;;;;0.10;99.90;;;;;;5091960;28;19915;-77
2021/01/09 03:30:10;;;;;;;;;;;0.10;99.90;;;;;;5090861;28;19919;-77
2021/01/09 03:32:36;;;;;;;;;;;0.10;99.90;;;;;;5092393;28;19957;-77
2021/01/09 03:35:02;;;;;;;;;;;0.10;99.90;;;;;;5092185;28;19997;-77
2021/01/09 03:37:27;;;;;;;;;;;0.10;99.90;;;;;;5091708;28;19908;-76
2021/01/09 03:39:52;;;;;;;;;;;0.10;99.90;;;;;;5088376;28;19912;-77
2021/01/09 03:42:18;;;;;;;;;;;0.10;99.90;;;;;;5107027;28;20348;-77
2021/01/09 03:44:43;;;;;;;;;;;0.20;99.90;;;;;;5112455;28;19916;-77
2021/01/09 03:47:09;;;;;;;;;;;0.20;99.90;;;;;;5110886;28;20006;-77
2021/01/09 03:49:34;;;;;;;;;;;0.20;99.90;;;;;;5111061;28;19908;-76
2021/01/09 03:52:00;;;;;;;;;;;0.20;99.90;;;;;;5110704;28;19958;-77
2021/01/09 03:54:25;;;;;;;;;;;0.20;99.90;;;;;;5112200;28;19960;-76
2021/01/09 03:56:51;;;;;;;;;;;0.20;99.90;;;;;;5112033;28;19960;-77
2021/01/09 03:59:16;;;;;;;;;;;0.20;99.90;;;;;;5110889;28;19918;-77
2021/01/09 04:01:42;;;;;;;;;;;0.10;99.90;;;;;;5112629;28;19907;-76
2021/01/09 04:04:07;;;;;;;;;;;0.10;99.90;;;;;;5112107;28;19915;-77
2021/01/09 04:06:32;;;;;;;;;;;0.00;99.90;;;;;;5110289;28;19970;-77
2021/01/09 04:08:58;;;;;;;;;;;0.00;99.90;;;;;;5110800;28;19919;-76
2021/01/09 04:11:23;;;;;;;;;;;0.00;99.90;;;;;;5093042;28;20561;-77
2021/01/09 04:13:49;;;;;;;;;;;0.00;99.90;;;;;;5097133;28;19915;-77
2021/01/09 04:16:14;;;;;;;;;;;-0.10;99.90;;;;;;5090015;28;19931;-77
2021/01/09 04:18:40;;;;;;;;;;;0.00;99.90;;;;;;5091542;28;19985;-76
2021/01/09 04:21:05;;;;;;;;;;;0.00;99.90;;;;;;5091400;28;19915;-76
2021/01/09 04:23:31;;;;;;;;;;;0.10;99.90;;;;;;5091684;28;19915;-77
2021/01/09 04:25:56;;;;;;;;;;;0.10;99.90;;;;;;5090192;28;19912;-76
2021/01/09 04:28:22;;;;;;;;;;;0.20;99.90;;;;;;5090298;28;19908;-77
2021/01/09 04:30:47;;;;;;;;;;;0.20;99.90;;;;;;5093474;28;20441;-77
2021/01/09 04:33:12;;;;;;;;;;;0.20;99.90;;;;;;5095374;28;19922;-76
2021/01/09 04:35:38;;;;;;;;;;;0.30;99.90;;;;;;5094911;28;19954;-76
2021/01/09 04:38:03;;;;;;;;;;;0.30;99.90;;;;;;5095274;28;20265;-76
2021/01/09 04:40:29;;;;;;;;;;;0.30;99.90;;;;;;5092203;28;19908;-76
2021/01/09 04:42:54;;;;;;;;;;;0.30;99.90;;;;;;5115492;28;19908;-76
2021/01/09 04:45:20;;;;;;;;;;;0.30;99.90;;;;;;5115559;28;20284;-76
2021/01/09 04:47:48;;;;;;;;;;;0.30;99.90;;;;;;5115301;28;19912;-76
2021/01/09 04:50:14;;;;;;;;;;;0.20;99.90;;;;;;5115209;28;19919;-76
2021/01/09 04:52:40;;;;;;;;;;;0.20;99.90;;;;;;5115448;28;20014;-76
2021/01/09 04:55:06;;;;;;;;;;;0.20;99.90;;;;;;5115489;28;19939;-76
2021/01/09 04:57:31;;;;;;;;;;;0.10;99.90;;;;;;5113640;28;20016;-76
2021/01/09 04:59:57;;;;;;;;;;;0.10;99.90;;;;;;5115305;28;19931;-76
2021/01/09 05:02:22;;;;;;;;;;;0.10;99.90;;;;;;5115264;28;19911;-76
2021/01/09 05:04:48;;;;;;;;;;;0.10;99.90;;;;;;5114998;28;19953;-76
2021/01/09 05:07:13;;;;;;;;;;;0.10;99.90;;;;;;5114821;28;19919;-76
2021/01/09 05:09:39;;;;;;;;;;;0.10;99.90;;;;;;5114164;28;19907;-76
2021/01/09 05:12:05;;;;;;;;;;;0.10;99.90;;;;;;5104329;28;19912;-76
2021/01/09 05:14:30;;;;;;;;;;;0.10;99.90;;;;;;5114892;28;19911;-76
2021/01/09 05:17:00;;;;;;;;;;;0.10;99.90;;;;;;5114654;28;19907;-76
2021/01/09 05:19:29;;;;;;;;;;;0.10;99.90;;;;;;5114501;28;20409;-76
2021/01/09 05:21:55;;;;;;;;;;;0.10;99.90;;;;;;5114914;28;19998;-76
2021/01/09 05:24:21;;;;;;;;;;;0.10;99.90;;;;;;5114856;28;19953;-76
2021/01/09 05:26:47;;;;;;;;;;;0.10;99.90;;;;;;5114435;28;19998;-76
2021/01/09 05:29:14;;;;;;;;;;;0.10;99.90;;;;;;5114640;28;19908;-76
2021/01/09 05:31:39;;;;;;;;;;;0.10;99.90;;;;;;5114661;28;19916;-76
2021/01/09 05:34:05;;;;;;;;;;;0.10;99.90;;;;;;5114546;28;19908;-76
2021/01/09 05:36:30;;;;;;;;;;;0.20;99.90;;;;;;5114402;28;19907;-76
2021/01/09 05:38:56;;;;;;;;;;;0.20;99.90;;;;;;5114504;28;19914;-76
2021/01/09 05:41:22;;;;;;;;;;;0.20;99.90;;;;;;5093698;28;19916;-76
2021/01/09 05:43:58;;;;;;;;;;;0.20;99.90;;;;;;5092688;28;19914;-76
2021/01/09 05:46:24;;;;;;;;;;;0.20;99.90;;;;;;5092370;28;19966;-76
2021/01/09 05:48:49;;;;;;;;;;;0.30;99.90;;;;;;5093836;28;19916;-76
2021/01/09 05:51:16;;;;;;;;;;;0.30;99.90;;;;;;5093800;28;19912;-76
2021/01/09 05:53:42;;;;;;;;;;;0.30;99.90;;;;;;5093880;28;20003;-76
2021/01/09 05:56:12;;;;;;;;;;;0.30;99.90;;;;;;5093503;28;20381;-76
2021/01/09 05:58:38;;;;;;;;;;;0.30;99.90;;;;;;5093661;28;20007;-76
2021/01/09 06:01:05;;;;;;;;;;;0.20;99.90;;;;;;5093538;28;20000;-76
2021/01/09 06:03:36;;;;;;;;;;;0.20;99.90;;;;;;5093523;28;19912;-76
2021/01/09 06:06:05;;;;;;;;;;;0.20;99.90;;;;;;5093283;28;19982;-76
2021/01/09 06:08:31;;;;;;;;;;;0.20;99.90;;;;;;5093417;28;20003;-76
2021/01/09 06:11:01;;;;;;;;;;;0.20;99.90;;;;;;5094486;28;19908;-76
2021/01/09 06:13:30;;;;;;;;;;;0.20;99.90;;;;;;5103148;28;20296;-76
2021/01/09 06:16:02;;;;;;;;;;;0.20;99.90;;;;;;5093038;28;20420;-76
2021/01/09 06:18:28;;;;;;;;;;;0.20;99.90;;;;;;5093181;28;20258;-76
2021/01/09 06:20:54;;;;;;;;;;;0.20;99.90;;;;;;5093356;28;19919;-76
2021/01/09 06:23:19;;;;;;;;;;;0.20;99.90;;;;;;5093221;28;19977;-76
2021/01/09 06:25:47;;;;;;;;;;;0.10;99.90;;;;;;5092929;28;19954;-76
2021/01/09 06:28:13;;;;;;;;;;;0.10;99.90;;;;;;5092924;28;20320;-76
2021/01/09 06:30:41;;;;;;;;;;;0.10;99.90;;;;;;5093072;28;19963;-76
2021/01/09 06:33:13;;;;;;;;;;;0.10;99.90;;;;;;5093108;28;19916;-76
2021/01/09 06:35:39;;;;;;;;;;;0.10;99.90;;;;;;5092850;28;19911;-76
2021/01/09 06:38:06;;;;;;;;;;;0.10;99.90;;;;;;5093094;28;19909;-76
2021/01/09 06:40:31;;;;;;;;;;;0.20;99.90;;;;;;5087661;28;19908;-76
2021/01/09 06:42:59;;;;;;;;;;;0.20;99.90;;;;;;5099062;28;19914;-76
2021/01/09 06:45:24;;;;;;;;;;;0.20;99.90;;;;;;5113281;28;20404;-76
2021/01/09 06:47:57;;;;;;;;;;;0.20;99.90;;;;;;5112770;28;19908;-76
2021/01/09 06:50:29;;;;;;;;;;;0.30;99.90;;;;;;5111942;28;20296;-76
2021/01/09 06:52:55;;;;;;;;;;;0.30;99.90;;;;;;5112385;28;20329;-76
2021/01/09 06:55:35;;;;;;;;;;;0.30;99.90;;;;;;5113031;28;19951;-76
2021/01/09 06:58:01;;;;;;;;;;;0.40;99.90;;;;;;5112939;28;19954;-76
2021/01/09 07:00:26;;;;;;;;;;;0.30;99.90;;;;;;5113191;28;19908;-76
2021/01/09 07:03:11;;;;;;;;;;;0.40;99.90;;;;;;5112994;28;19908;-76
2021/01/09 07:05:43;;;;;;;;;;;0.40;99.90;;;;;;5112604;28;19915;-76
2021/01/09 07:08:08;;;;;;;;;;;0.40;99.90;;;;;;5112888;28;19961;-76
2021/01/09 07:10:42;;;;;;;;;;;0.40;99.90;;;;;;5099245;28;19908;-76
2021/01/09 07:13:08;;;;;;;;;;;0.40;99.90;;;;;;5100765;28;20383;-76
2021/01/09 07:15:35;;;;;;;;;;;0.40;99.90;;;;;;5092233;28;19912;-76
2021/01/09 07:18:02;;;;;;;;;;;0.40;99.90;;;;;;5092084;28;20377;-76
2021/01/09 07:20:35;;;;;;;;;;;0.40;99.90;;;;;;5092337;28;20006;-76
2021/01/09 07:23:02;;;;;;;;;;;0.40;99.90;;;;;;5092630;28;19908;-76
2021/01/09 07:25:29;;;;;;;;;;;0.40;99.90;;;;;;5091011;28;19908;-76
2021/01/09 07:27:56;;;;;;;;;;;0.40;99.90;;;;;;5091813;28;19908;-76
2021/01/09 07:30:21;;;;;;;;;;;0.40;99.90;;;;;;5092076;28;19951;-76
2021/01/09 07:32:51;;;;;;;;;;;0.30;99.90;;;;;;5091983;28;20380;-76
2021/01/09 07:35:18;;;;;;;;;;;0.20;99.90;;;;;;5092322;28;19990;-76
2021/01/09 07:37:43;;;;;;;;;;;0.20;99.90;;;;;;5091828;28;19912;-76
2021/01/09 07:40:17;;;;;;;;;;;0.30;99.90;;;;;;5087293;28;19909;-76
2021/01/09 07:42:43;;;;;;;;;;;0.30;99.90;;;;;;5096861;28;19965;-76
2021/01/09 07:45:15;;;;;;;;;;;0.30;99.90;;;;;;5112325;28;19908;-76
2021/01/09 07:47:41;;;;;;;;;;;0.30;99.90;;;;;;5112014;28;19908;-76
2021/01/09 07:50:07;;;;;;;;;;;0.30;99.90;;;;;;5111045;28;19914;-76
2021/01/09 07:52:34;;;;;;;;;;;0.30;99.90;;;;;;5112437;28;20365;-76
2021/01/09 07:54:59;;;;;;;;;;;0.40;99.90;;;;;;5112439;28;19919;-76
2021/01/09 07:57:25;;;;;;;;;;;0.30;99.90;;;;;;5112027;28;20374;-76
2021/01/09 07:59:53;;;;;;;;;;;0.40;99.90;;;;;;5111728;28;19999;-76
2021/01/09 08:02:37;;;;;;;;;;;0.40;99.90;;;;;;5112251;28;19912;-76
2021/01/09 08:05:04;;;;;;;;;;;0.40;99.90;;;;;;5114764;28;19908;-76
2021/01/09 08:07:30;;;;;;;;;;;0.40;99.90;;;;;;5114740;28;19931;-76
2021/01/09 08:09:55;;;;;;;;;;;0.50;99.90;;;;;;5113428;28;20407;-76
2021/01/09 08:12:25;;;;;;;;;;;0.50;99.90;;;;;;5103801;28;19918;-76
2021/01/09 08:14:50;;;;;;;;;;;0.60;99.90;;;;;;5116182;28;19914;-76
2021/01/09 08:17:16;;;;;;;;;;;0.60;99.90;;;;;;5115903;28;20010;-76
2021/01/09 08:19:41;;;;;;;;;;;0.70;99.90;;;;;;5116054;28;19908;-76
2021/01/09 08:22:07;;;;;;;;;;;0.70;99.90;;;;;;5116287;28;19969;-76
2021/01/09 08:24:32;;;;;;;;;;;0.80;99.90;;;;;;5116052;28;19987;-76
2021/01/09 08:26:57;;;;;;;;;;;0.80;99.90;;;;;;5115619;28;20397;-76
2021/01/09 08:29:23;;;;;;;;;;;0.80;99.90;;;;;;5115863;28;20245;-76
2021/01/09 08:31:50;;;;;;;;;;;0.80;99.90;;;;;;5115797;28;19916;-76
2021/01/09 08:34:15;;;;;;;;;;;0.80;99.90;;;;;;5115930;28;19908;-76
2021/01/09 08:36:41;;;;;;;;;;;0.80;99.90;;;;;;5115602;28;19908;-76
2021/01/09 08:39:07;;;;;;;;;;;0.80;99.90;;;;;;5115730;28;19915;-76
2021/01/09 08:41:40;;;;;;;;;;;0.80;99.90;;;;;;5093718;28;20292;-76
2021/01/09 08:44:06;;;;;;;;;;;0.80;99.90;;;;;;5093947;28;19908;-76
2021/01/09 08:46:32;;;;;;;;;;;0.80;99.90;;;;;;5094948;28;19912;-76
2021/01/09 08:48:58;;;;;;;;;;;0.80;99.90;;;;;;5095202;28;19908;-76
2021/01/09 08:51:24;;;;;;;;;;;0.70;99.90;;;;;;5095251;28;20248;-76
2021/01/09 08:53:51;;;;;;;;;;;0.70;99.90;;;;;;5095588;28;20275;-77
2021/01/09 08:56:20;;;;;;;;;;;0.60;99.90;;;;;;5094587;28;20330;-76
2021/01/09 08:58:46;;;;;;;;;;;0.60;99.90;;;;;;5093558;28;19908;-76
2021/01/09 09:01:13;;;;;;;;;;;0.60;99.90;;;;;;5095053;28;20311;-76
2021/01/09 09:03:43;;;;;;;;;;;0.60;99.90;;;;;;5095008;28;19961;-76
2021/01/09 09:06:09;;;;;;;;;;;0.60;99.90;;;;;;5094507;28;20420;-76
2021/01/09 09:08:35;;;;;;;;;;;0.60;99.90;;;;;;5094651;28;20357;-76
2021/01/09 09:11:02;;;;;;;;;;;0.70;99.90;;;;;;5096418;28;19947;-76
2021/01/09 09:13:27;;;;;;;;;;;0.70;99.90;;;;;;5114952;28;19918;-76
2021/01/09 09:15:53;;;;;;;;;;;0.80;99.90;;;;;;5112597;28;20010;-76
2021/01/09 09:18:19;;;;;;;;;;;0.80;99.90;;;;;;5114963;28;19908;-76
2021/01/09 09:20:49;;;;;;;;;;;0.80;99.90;;;;;;5113677;28;19990;-76
2021/01/09 09:23:15;;;;;;;;;;;0.80;99.90;;;;;;5113591;28;19908;-76
2021/01/09 09:25:41;;;;;;;;;;;0.80;99.90;;;;;;5114557;28;19915;-76
2021/01/09 09:28:06;;;;;;;;;;;0.80;99.90;;;;;;5114758;28;19908;-76
2021/01/09 09:30:31;;;;;;;;;;;0.80;99.90;;;;;;5114786;28;19920;-76
2021/01/09 09:33:09;;;;;;;;;;;0.90;99.90;;;;;;5114639;28;20451;-76
2021/01/09 09:35:34;;;;;;;;;;;0.80;99.90;;;;;;5114575;28;20295;-76
2021/01/09 09:38:02;;;;;;;;;;;0.90;99.90;;;;;;5113949;28;19912;-76
2021/01/09 09:40:31;;;;;;;;;;;0.90;99.90;;;;;;5100518;28;20007;-76
2021/01/09 09:43:10;;;;;;;;;;;0.90;99.90;;;;;;5080435;28;19908;-76
2021/01/09 09:45:36;;;;;;;;;;;0.90;99.90;;;;;;5093948;28;20313;-76
2021/01/09 09:48:01;;;;;;;;;;;0.90;99.90;;;;;;5092690;28;19955;-76
2021/01/09 09:50:27;;;;;;;;;;;1.00;99.90;;;;;;5092934;28;19912;-76
2021/01/09 09:52:59;;;;;;;;;;;1.00;99.90;;;;;;5080436;28;19920;-76
2021/01/09 09:55:25;;;;;;;;;;;1.00;99.90;;;;;;5090843;28;19958;-76
2021/01/09 09:58:03;;;;;;;;;;;1.00;99.90;;;;;;5086095;28;19908;-76
2021/01/09 10:00:29;;;;;;;;;;;1.10;99.90;;;;;;5077891;28;19908;-76
2021/01/09 10:02:56;;;;;;;;;;;1.30;99.90;;;;;;5072917;28;20300;-76
2021/01/09 10:05:22;;;;;;;;;;;1.40;99.90;;;;;;5073071;28;20285;-76
2021/01/09 10:07:47;;;;;;;;;;;1.50;99.90;;;;;;5072618;28;19916;-76
2021/01/09 10:10:13;;;;;;;;;;;1.50;99.90;;;;;;5072824;28;19915;-76
2021/01/09 10:12:39;;;;;;;;;;;1.50;99.90;;;;;;5092884;28;19965;-76
2021/01/09 10:15:05;;;;;;;;;;;1.60;99.90;;;;;;5092976;28;19908;-76
2021/01/09 10:17:30;;;;;;;;;;;1.60;99.90;;;;;;5092615;28;20395;-76
2021/01/09 10:19:55;;;;;;;;;;;1.70;99.90;;;;;;5092826;28;19908;-76
2021/01/09 10:22:21;;;;;;;;;;;1.60;99.90;;;;;;5092750;28;20368;-76
2021/01/09 10:24:46;;;;;;;;;;;1.60;99.90;;;;;;5092824;28;19908;-76
2021/01/09 10:27:12;;;;;;;;;;;1.60;99.90;;;;;;5092363;28;19908;-76
2021/01/09 10:29:37;;;;;;;;;;;1.60;99.90;;;;;;5092618;28;19997;-76
2021/01/09 10:32:03;;;;;;;;;;;1.70;99.90;;;;;;5092296;28;19927;-76
2021/01/09 10:34:28;;;;;;;;;;;1.80;99.90;;;;;;5092567;28;20011;-76
2021/01/09 10:36:54;;;;;;;;;;;1.80;99.90;;;;;;5091970;28;19934;-76
2021/01/09 10:39:19;;;;;;;;;;;1.90;99.90;;;;;;5092514;28;19915;-77
2021/01/09 10:41:45;;;;;;;;;;;2.00;99.90;;;;;;5086889;28;19922;-76
2021/01/09 10:44:10;;;;;;;;;;;2.00;99.90;;;;;;5091081;28;19908;-76
2021/01/09 10:46:36;;;;;;;;;;;2.10;99.90;;;;;;5092014;28;19909;-76
2021/01/09 10:49:01;;;;;;;;;;;2.00;99.90;;;;;;5092209;28;19908;-76
2021/01/09 10:51:29;;;;;;;;;;;2.00;99.90;;;;;;5092306;28;19915;-76
2021/01/09 10:53:54;;;;;;;;;;;2.10;99.90;;;;;;5092179;28;19958;-76
2021/01/09 10:56:20;;;;;;;;;;;2.10;99.90;;;;;;5091802;28;20273;-76
2021/01/09 10:58:45;;;;;;;;;;;2.10;99.90;;;;;;5092031;28;19909;-76
2021/01/09 11:01:11;;;;;;;;;;;2.00;99.90;;;;;;5091991;28;19923;-76
2021/01/09 11:03:40;;;;;;;;;;;1.90;99.90;;;;;;5092065;28;19987;-76
2021/01/09 11:06:05;;;;;;;;;;;1.90;99.90;;;;;;5091422;28;19935;-76
2021/01/09 11:08:30;;;;;;;;;;;1.80;99.90;;;;;;5091863;28;20397;-76
2021/01/09 11:10:56;;;;;;;;;;;1.80;99.90;;;;;;5086533;28;19930;-76
2021/01/09 11:13:22;;;;;;;;;;;1.70;99.90;;;;;;5101662;28;19911;-76
2021/01/09 11:15:48;;;;;;;;;;;1.70;99.90;;;;;;5110713;28;19923;-76
2021/01/09 11:18:14;;;;;;;;;;;1.70;99.90;;;;;;5100144;28;19912;-76
2021/01/09 11:20:44;;;;;;;;;;;1.60;99.90;;;;;;5092272;28;19915;-76
2021/01/09 11:23:09;;;;;;;;;;;1.50;99.90;;;;;;5091908;28;19999;-76
2021/01/09 11:25:34;;;;;;;;;;;1.50;99.90;;;;;;5090547;28;20367;-76
2021/01/09 11:28:01;;;;;;;;;;;1.60;99.90;;;;;;5091772;28;19909;-76
2021/01/09 11:30:27;;;;;;;;;;;1.60;99.90;;;;;;5092160;28;19965;-77
2021/01/09 11:32:52;;;;;;;;;;;1.50;99.90;;;;;;5092261;28;19959;-77
2021/01/09 11:35:17;;;;;;;;;;;1.50;99.90;;;;;;5092205;28;19912;-76
2021/01/09 11:37:43;;;;;;;;;;;1.50;99.90;;;;;;5091888;28;20380;-76
2021/01/09 11:40:09;;;;;;;;;;;1.50;99.90;;;;;;5086986;28;20018;-76
2021/01/09 11:42:34;;;;;;;;;;;1.50;99.90;;;;;;5102753;28;19908;-76
2021/01/09 11:45:00;;;;;;;;;;;1.50;99.90;;;;;;5112344;28;19912;-76
2021/01/09 11:47:25;;;;;;;;;;;1.50;99.90;;;;;;5112118;28;19953;-77
2021/01/09 11:49:51;;;;;;;;;;;1.50;99.90;;;;;;5112261;28;19908;-77
2021/01/09 11:52:16;;;;;;;;;;;1.40;99.90;;;;;;5111006;28;19912;-76
2021/01/09 11:54:42;;;;;;;;;;;1.40;99.90;;;;;;5112402;28;20173;-77
2021/01/09 11:57:07;;;;;;;;;;;1.30;99.90;;;;;;5111997;28;20310;-77
2021/01/09 11:59:33;;;;;;;;;;;1.30;99.90;;;;;;5112063;28;19930;-76
2021/01/09 12:01:58;;;;;;;;;;;1.30;99.90;;;;;;5112275;28;19919;-76
2021/01/09 12:04:23;;;;;;;;;;;1.20;99.90;;;;;;5112296;28;19912;-76
2021/01/09 12:06:49;;;;;;;;;;;1.00;99.90;;;;;;5111953;28;19907;-76
2021/01/09 12:09:15;;;;;;;;;;;1.00;99.90;;;;;;5112024;28;19978;-76
2021/01/09 12:11:41;;;;;;;;;;;0.90;99.90;;;;;;5089398;28;20173;-76
2021/01/09 12:14:06;;;;;;;;;;;0.80;99.90;;;;;;5091546;28;19915;-76
2021/01/09 12:16:33;;;;;;;;;;;0.90;99.90;;;;;;5091534;28;19916;-76
2021/01/09 12:18:59;;;;;;;;;;;0.90;99.90;;;;;;5091293;28;20372;-76
2021/01/09 12:21:28;;;;;;;;;;;1.00;99.90;;;;;;5091152;28;20372;-76
2021/01/09 12:23:55;;;;;;;;;;;1.00;99.90;;;;;;5089683;28;20373;-76
2021/01/09 12:26:20;;;;;;;;;;;1.00;99.90;;;;;;5089482;28;19909;-76
2021/01/09 12:28:46;;;;;;;;;;;1.10;99.90;;;;;;5090893;28;19919;-76
2021/01/09 12:31:11;;;;;;;;;;;1.20;99.90;;;;;;5090752;28;19916;-77
2021/01/09 12:33:37;;;;;;;;;;;1.30;99.90;;;;;;5090766;28;19919;-76
2021/01/09 12:36:03;;;;;;;;;;;1.40;99.90;;;;;;5090993;28;20313;-76
2021/01/09 12:38:28;;;;;;;;;;;1.40;99.90;;;;;;5090356;28;19909;-76
2021/01/09 12:40:54;;;;;;;;;;;1.50;99.90;;;;;;5092111;28;19912;-76
2021/01/09 12:43:19;;;;;;;;;;;1.50;99.90;;;;;;5103236;28;19959;-76
2021/01/09 12:45:45;;;;;;;;;;;1.50;99.90;;;;;;5111572;28;19908;-76
2021/01/09 12:48:10;;;;;;;;;;;1.60;99.90;;;;;;5111720;28;19919;-76
2021/01/09 12:50:42;;;;;;;;;;;1.50;99.90;;;;;;5111947;28;19964;-77
2021/01/09 12:53:07;;;;;;;;;;;1.30;99.90;;;;;;5115385;28;19919;-76
2021/01/09 12:55:33;;;;;;;;;;;1.10;99.90;;;;;;5115442;28;19912;-76
2021/01/09 12:57:58;;;;;;;;;;;1.00;99.90;;;;;;5113780;28;19911;-76
2021/01/09 13:00:24;;;;;;;;;;;0.90;99.90;;;;;;5115468;28;20044;-76
2021/01/09 13:02:49;;;;;;;;;;;0.80;99.90;;;;;;5115464;28;20277;-76
2021/01/09 13:05:15;;;;;;;;;;;0.70;99.90;;;;;;5115395;28;20018;-76
2021/01/09 13:07:40;;;;;;;;;;;0.70;99.90;;;;;;5113576;28;19908;-76
2021/01/09 13:10:06;;;;;;;;;;;0.60;99.90;;;;;;5106688;28;20395;-76
2021/01/09 13:12:31;;;;;;;;;;;0.60;99.90;;;;;;5093532;28;19977;-76
2021/01/09 13:14:57;;;;;;;;;;;0.70;99.90;;;;;;5094808;28;19915;-76
2021/01/09 13:17:22;;;;;;;;;;;0.70;99.90;;;;;;5094311;28;19939;-76
2021/01/09 13:19:49;;;;;;;;;;;0.80;99.90;;;;;;5094672;28;19908;-76
2021/01/09 13:22:14;;;;;;;;;;;0.90;99.90;;;;;;5094624;28;19916;-76
2021/01/09 13:24:40;;;;;;;;;;;1.00;99.90;;;;;;5094701;28;19954;-76
2021/01/09 13:27:05;;;;;;;;;;;1.10;99.90;;;;;;5093982;28;20284;-76
2021/01/09 13:29:31;;;;;;;;;;;1.10;99.90;;;;;;5094486;28;19908;-76
2021/01/09 13:31:57;;;;;;;;;;;1.00;99.90;;;;;;5094316;28;20319;-76
2021/01/09 13:34:22;;;;;;;;;;;1.00;99.90;;;;;;5094431;28;20124;-76
2021/01/09 13:36:48;;;;;;;;;;;0.90;99.90;;;;;;5094077;28;19909;-76
2021/01/09 13:39:14;;;;;;;;;;;0.90;99.90;;;;;;5092918;28;20364;-76
2021/01/09 13:41:41;;;;;;;;;;;0.90;99.90;;;;;;5095920;28;19918;-76
2021/01/09 13:44:09;;;;;;;;;;;0.80;99.90;;;;;;5094148;28;19908;-76
2021/01/09 13:46:35;;;;;;;;;;;0.80;99.90;;;;;;5093857;28;19928;-76
2021/01/09 13:49:05;;;;;;;;;;;0.80;99.90;;;;;;5094023;28;19908;-76
2021/01/09 13:51:32;;;;;;;;;;;0.80;99.90;;;;;;5093964;28;19973;-76
2021/01/09 13:53:57;;;;;;;;;;;0.80;99.90;;;;;;5093864;28;19940;-76
2021/01/09 13:56:33;;;;;;;;;;;0.80;99.90;;;;;;5092386;28;20446;-76
2021/01/09 13:58:58;;;;;;;;;;;0.80;99.90;;;;;;5093796;28;20003;-76
2021/01/09 14:01:24;;;;;;;;;;;0.80;99.90;;;;;;5093490;28;19959;-76
2021/01/09 14:03:49;;;;;;;;;;;0.80;99.90;;;;;;5093584;28;19998;-76
2021/01/09 14:06:15;;;;;;;;;;;0.80;99.90;;;;;;5093305;28;20363;-77
2021/01/09 14:08:41;;;;;;;;;;;0.80;99.90;;;;;;5093596;28;19978;-76
2021/01/09 14:11:07;;;;;;;;;;;0.80;99.90;;;;;;5096000;28;20352;-76
2021/01/09 14:13:32;;;;;;;;;;;0.80;99.90;;;;;;5113729;28;19912;-76
2021/01/09 14:15:58;;;;;;;;;;;0.70;99.90;;;;;;5113611;28;19912;-76
2021/01/09 14:18:23;;;;;;;;;;;0.70;99.90;;;;;;5113857;28;19915;-76
2021/01/09 14:20:53;;;;;;;;;;;0.60;99.90;;;;;;5113886;28;19915;-76
2021/01/09 14:23:19;;;;;;;;;;;0.60;99.90;;;;;;5113723;28;19908;-76